sensor_id;sensor_type;location;lat;lon;timestamp;P1;durP1;ratioP1;P2;durP2;ratioP2
7497;SDS011;3790;48.806;9.140;2023-05-29T00:02:13;5.55;;;2.80;;
7497;SDS011;3790;48.806;9.140;2023-05-29T00:07:14;5.63;;;2.90;;
7497;SDS011;3790;48.806;9.140;2023-05-29T00:12:16;4.93;;;2.35;;
7497;SDS011;3790;48.806;9.140;2023-05-29T00:17:17;3.28;;;2.20;;
7497;SDS011;3790;48.806;9.140;2023-05-29T00:22:19;6.57;;;3.00;;
7497;SDS011;3790;48.806;9.140;2023-05-29T00:27:20;4.63;;;2.72;;
7497;SDS011;3790;48.806;9.140;2023-05-29T00:32:21;4.93;;;2.67;;
7497;SDS011;3790;48.806;9.140;2023-05-29T00:37:21;4.30;;;2.75;;
7497;SDS011;3790;48.806;9.140;2023-05-29T00:42:22;7.53;;;3.33;;
7497;SDS011;3790;48.806;9.140;2023-05-29T00:47:23;6.57;;;3.05;;
7497;SDS011;3790;48.806;9.140;2023-05-29T00:52:24;5.55;;;3.10;;
7497;SDS011;3790;48.806;9.140;2023-05-29T00:57:26;6.07;;;3.05;;
7497;SDS011;3790;48.806;9.140;2023-05-29T01:02:27;5.20;;;3.35;;
7497;SDS011;3790;48.806;9.140;2023-05-29T01:07:29;3.88;;;2.42;;
7497;SDS011;3790;48.806;9.140;2023-05-29T01:28:39;4.63;;;2.67;;
7497;SDS011;3790;48.806;9.140;2023-05-29T01:33:42;4.15;;;2.88;;
7497;SDS011;3790;48.806;9.140;2023-05-29T01:38:51;5.43;;;2.80;;
7497;SDS011;3790;48.806;9.140;2023-05-29T01:43:54;5.15;;;2.78;;
7497;SDS011;3790;48.806;9.140;2023-05-29T01:48:57;4.75;;;2.80;;
7497;SDS011;3790;48.806;9.140;2023-05-29T01:53:58;4.10;;;2.63;;
7497;SDS011;3790;48.806;9.140;2023-05-29T01:59:02;3.50;;;2.33;;
7497;SDS011;3790;48.806;9.140;2023-05-29T02:04:03;5.13;;;3.35;;
7497;SDS011;3790;48.806;9.140;2023-05-29T02:09:06;7.63;;;3.05;;
7497;SDS011;3790;48.806;9.140;2023-05-29T02:14:07;4.82;;;2.67;;
7497;SDS011;3790;48.806;9.140;2023-05-29T02:19:08;5.97;;;3.10;;
7497;SDS011;3790;48.806;9.140;2023-05-29T02:24:09;4.32;;;2.83;;
7497;SDS011;3790;48.806;9.140;2023-05-29T02:29:09;4.75;;;2.42;;
7497;SDS011;3790;48.806;9.140;2023-05-29T02:34:10;4.30;;;2.80;;
7497;SDS011;3790;48.806;9.140;2023-05-29T02:39:11;5.38;;;3.05;;
7497;SDS011;3790;48.806;9.140;2023-05-29T02:44:12;9.35;;;2.88;;
7497;SDS011;3790;48.806;9.140;2023-05-29T02:49:13;6.20;;;3.28;;
7497;SDS011;3790;48.806;9.140;2023-05-29T02:54:13;5.20;;;2.72;;
7497;SDS011;3790;48.806;9.140;2023-05-29T02:59:14;5.83;;;2.63;;
7497;SDS011;3790;48.806;9.140;2023-05-29T03:04:14;6.13;;;2.80;;
7497;SDS011;3790;48.806;9.140;2023-05-29T03:09:15;4.50;;;2.42;;
7497;SDS011;3790;48.806;9.140;2023-05-29T03:14:16;6.38;;;2.42;;
7497;SDS011;3790;48.806;9.140;2023-05-29T03:19:18;4.53;;;2.67;;
7497;SDS011;3790;48.806;9.140;2023-05-29T03:24:19;4.78;;;2.67;;
7497;SDS011;3790;48.806;9.140;2023-05-29T03:29:20;6.83;;;3.00;;
7497;SDS011;3790;48.806;9.140;2023-05-29T03:34:21;6.03;;;2.77;;
7497;SDS011;3790;48.806;9.140;2023-05-29T03:39:21;3.60;;;2.43;;
7497;SDS011;3790;48.806;9.140;2023-05-29T03:44:22;3.97;;;2.40;;
7497;SDS011;3790;48.806;9.140;2023-05-29T03:49:22;5.40;;;2.23;;
7497;SDS011;3790;48.806;9.140;2023-05-29T03:54:23;4.97;;;2.77;;
7497;SDS011;3790;48.806;9.140;2023-05-29T03:59:23;4.60;;;2.50;;
7497;SDS011;3790;48.806;9.140;2023-05-29T04:04:24;4.00;;;2.53;;
7497;SDS011;3790;48.806;9.140;2023-05-29T04:09:25;8.57;;;2.87;;
7497;SDS011;3790;48.806;9.140;2023-05-29T04:14:25;4.57;;;2.85;;
7497;SDS011;3790;48.806;9.140;2023-05-29T04:19:26;3.60;;;2.13;;
7497;SDS011;3790;48.806;9.140;2023-05-29T04:24:26;4.47;;;2.42;;
7497;SDS011;3790;48.806;9.140;2023-05-29T04:29:28;3.72;;;2.63;;
7497;SDS011;3790;48.806;9.140;2023-05-29T04:34:29;7.57;;;2.45;;
7497;SDS011;3790;48.806;9.140;2023-05-29T04:39:30;6.10;;;2.92;;
7497;SDS011;3790;48.806;9.140;2023-05-29T04:44:31;5.07;;;2.65;;
7497;SDS011;3790;48.806;9.140;2023-05-29T04:49:32;12.85;;;3.08;;
7497;SDS011;3790;48.806;9.140;2023-05-29T04:54:33;5.82;;;2.70;;
7497;SDS011;3790;48.806;9.140;2023-05-29T04:59:35;5.10;;;2.83;;
7497;SDS011;3790;48.806;9.140;2023-05-29T05:04:35;5.28;;;2.85;;
7497;SDS011;3790;48.806;9.140;2023-05-29T05:09:36;5.82;;;2.97;;
7497;SDS011;3790;48.806;9.140;2023-05-29T05:14:37;5.45;;;2.55;;
7497;SDS011;3790;48.806;9.140;2023-05-29T05:19:37;4.80;;;2.55;;
7497;SDS011;3790;48.806;9.140;2023-05-29T05:24:38;7.20;;;3.10;;
7497;SDS011;3790;48.806;9.140;2023-05-29T05:29:38;4.05;;;2.50;;
7497;SDS011;3790;48.806;9.140;2023-05-29T05:34:39;5.22;;;2.28;;
7497;SDS011;3790;48.806;9.140;2023-05-29T05:39:42;4.20;;;2.38;;
7497;SDS011;3790;48.806;9.140;2023-05-29T05:44:43;4.47;;;2.33;;
7497;SDS011;3790;48.806;9.140;2023-05-29T05:49:43;4.43;;;2.38;;
7497;SDS011;3790;48.806;9.140;2023-05-29T05:54:44;4.00;;;2.40;;
7497;SDS011;3790;48.806;9.140;2023-05-29T05:59:45;4.45;;;2.80;;
7497;SDS011;3790;48.806;9.140;2023-05-29T06:04:45;3.90;;;2.78;;
7497;SDS011;3790;48.806;9.140;2023-05-29T06:09:45;7.95;;;3.13;;
7497;SDS011;3790;48.806;9.140;2023-05-29T06:14:46;5.40;;;2.65;;
7497;SDS011;3790;48.806;9.140;2023-05-29T06:19:47;6.03;;;2.35;;
7497;SDS011;3790;48.806;9.140;2023-05-29T06:24:47;5.68;;;3.15;;
7497;SDS011;3790;48.806;9.140;2023-05-29T06:29:48;9.93;;;2.80;;
7497;SDS011;3790;48.806;9.140;2023-05-29T06:34:51;4.03;;;2.72;;
7497;SDS011;3790;48.806;9.140;2023-05-29T06:39:51;4.13;;;2.63;;
7497;SDS011;3790;48.806;9.140;2023-05-29T06:44:52;3.80;;;2.55;;
7497;SDS011;3790;48.806;9.140;2023-05-29T06:49:52;8.82;;;3.45;;
7497;SDS011;3790;48.806;9.140;2023-05-29T06:54:53;4.75;;;3.05;;
7497;SDS011;3790;48.806;9.140;2023-05-29T06:59:54;6.18;;;3.03;;
7497;SDS011;3790;48.806;9.140;2023-05-29T07:04:55;4.28;;;2.45;;
7497;SDS011;3790;48.806;9.140;2023-05-29T07:09:55;6.53;;;3.35;;
7497;SDS011;3790;48.806;9.140;2023-05-29T07:14:56;5.13;;;2.88;;
7497;SDS011;3790;48.806;9.140;2023-05-29T07:19:56;4.97;;;2.58;;
7497;SDS011;3790;48.806;9.140;2023-05-29T07:24:57;5.05;;;2.30;;
7497;SDS011;3790;48.806;9.140;2023-05-29T07:29:57;5.72;;;2.90;;
7497;SDS011;3790;48.806;9.140;2023-05-29T07:34:58;4.90;;;2.90;;
7497;SDS011;3790;48.806;9.140;2023-05-29T07:39:58;4.80;;;2.40;;
7497;SDS011;3790;48.806;9.140;2023-05-29T07:44:59;3.90;;;2.53;;
7497;SDS011;3790;48.806;9.140;2023-05-29T07:50:00;3.90;;;2.60;;
7497;SDS011;3790;48.806;9.140;2023-05-29T07:55:00;6.05;;;3.10;;
7497;SDS011;3790;48.806;9.140;2023-05-29T08:00:01;5.15;;;2.50;;
7497;SDS011;3790;48.806;9.140;2023-05-29T08:05:08;5.50;;;2.45;;
7497;SDS011;3790;48.806;9.140;2023-05-29T08:10:09;4.97;;;2.78;;
7497;SDS011;3790;48.806;9.140;2023-05-29T08:15:09;5.07;;;2.53;;
7497;SDS011;3790;48.806;9.140;2023-05-29T08:20:11;5.53;;;2.83;;
7497;SDS011;3790;48.806;9.140;2023-05-29T08:25:12;5.53;;;2.58;;
7497;SDS011;3790;48.806;9.140;2023-05-29T08:30:12;6.15;;;2.38;;
7497;SDS011;3790;48.806;9.140;2023-05-29T08:35:13;3.80;;;2.65;;
7497;SDS011;3790;48.806;9.140;2023-05-29T08:40:14;4.05;;;2.25;;
7497;SDS011;3790;48.806;9.140;2023-05-29T08:45:15;4.90;;;2.60;;
7497;SDS011;3790;48.806;9.140;2023-05-29T08:50:17;5.15;;;3.17;;
7497;SDS011;3790;48.806;9.140;2023-05-29T08:55:18;5.05;;;2.80;;
7497;SDS011;3790;48.806;9.140;2023-05-29T09:00:19;5.55;;;3.00;;
7497;SDS011;3790;48.806;9.140;2023-05-29T09:05:22;4.72;;;3.05;;
7497;SDS011;3790;48.806;9.140;2023-05-29T09:10:22;5.32;;;2.70;;
7497;SDS011;3790;48.806;9.140;2023-05-29T09:15:25;5.78;;;3.35;;
7497;SDS011;3790;48.806;9.140;2023-05-29T09:20:26;5.03;;;2.95;;
7497;SDS011;3790;48.806;9.140;2023-05-29T09:25:28;3.95;;;2.47;;
7497;SDS011;3790;48.806;9.140;2023-05-29T09:35:42;4.47;;;2.83;;
7497;SDS011;3790;48.806;9.140;2023-05-29T09:40:44;6.70;;;3.10;;
7497;SDS011;3790;48.806;9.140;2023-05-29T09:45:48;4.65;;;2.63;;
7497;SDS011;3790;48.806;9.140;2023-05-29T09:50:49;4.45;;;2.80;;
7497;SDS011;3790;48.806;9.140;2023-05-29T09:55:50;7.72;;;2.80;;
7497;SDS011;3790;48.806;9.140;2023-05-29T10:00:52;5.78;;;2.70;;
7497;SDS011;3790;48.806;9.140;2023-05-29T10:05:54;5.20;;;2.80;;
7497;SDS011;3790;48.806;9.140;2023-05-29T10:11:00;5.15;;;2.65;;
7497;SDS011;3790;48.806;9.140;2023-05-29T10:16:07;5.80;;;2.33;;
7497;SDS011;3790;48.806;9.140;2023-05-29T10:21:11;7.15;;;2.90;;
7497;SDS011;3790;48.806;9.140;2023-05-29T10:26:14;3.90;;;2.40;;
7497;SDS011;3790;48.806;9.140;2023-05-29T10:31:26;6.70;;;2.70;;
7497;SDS011;3790;48.806;9.140;2023-05-29T10:36:37;5.50;;;2.45;;
7497;SDS011;3790;48.806;9.140;2023-05-29T10:41:42;3.42;;;2.20;;
7497;SDS011;3790;48.806;9.140;2023-05-29T10:51:48;5.22;;;2.65;;
7497;SDS011;3790;48.806;9.140;2023-05-29T10:56:53;4.10;;;2.60;;
7497;SDS011;3790;48.806;9.140;2023-05-29T11:01:56;4.60;;;2.45;;
7497;SDS011;3790;48.806;9.140;2023-05-29T11:07:00;7.32;;;2.45;;
7497;SDS011;3790;48.806;9.140;2023-05-29T11:12:15;3.97;;;2.42;;
7497;SDS011;3790;48.806;9.140;2023-05-29T11:23:19;4.88;;;2.05;;
7497;SDS011;3790;48.806;9.140;2023-05-29T11:28:02;5.30;;;2.33;;
7497;SDS011;3790;48.806;9.140;2023-05-29T11:33:08;4.25;;;2.40;;
7497;SDS011;3790;48.806;9.140;2023-05-29T11:38:11;4.43;;;2.55;;
7497;SDS011;3790;48.806;9.140;2023-05-29T11:43:12;4.30;;;2.40;;
7497;SDS011;3790;48.806;9.140;2023-05-29T11:48:13;4.82;;;2.00;;
7497;SDS011;3790;48.806;9.140;2023-05-29T11:53:13;5.13;;;2.13;;
7497;SDS011;3790;48.806;9.140;2023-05-29T11:58:14;4.60;;;2.13;;
7497;SDS011;3790;48.806;9.140;2023-05-29T12:03:16;4.68;;;2.42;;
7497;SDS011;3790;48.806;9.140;2023-05-29T12:08:17;3.47;;;2.22;;
7497;SDS011;3790;48.806;9.140;2023-05-29T12:13:22;3.95;;;2.03;;
7497;SDS011;3790;48.806;9.140;2023-05-29T12:18:24;4.28;;;2.10;;
7497;SDS011;3790;48.806;9.140;2023-05-29T12:23:25;5.90;;;2.30;;
7497;SDS011;3790;48.806;9.140;2023-05-29T12:28:26;4.15;;;2.42;;
7497;SDS011;3790;48.806;9.140;2023-05-29T12:38:31;4.45;;;2.50;;
7497;SDS011;3790;48.806;9.140;2023-05-29T12:43:32;3.25;;;2.13;;
7497;SDS011;3790;48.806;9.140;2023-05-29T12:48:33;3.38;;;1.85;;
7497;SDS011;3790;48.806;9.140;2023-05-29T12:53:34;3.28;;;1.95;;
7497;SDS011;3790;48.806;9.140;2023-05-29T12:58:34;4.47;;;2.35;;
7497;SDS011;3790;48.806;9.140;2023-05-29T13:03:35;5.00;;;2.38;;
7497;SDS011;3790;48.806;9.140;2023-05-29T13:08:35;4.90;;;2.75;;
7497;SDS011;3790;48.806;9.140;2023-05-29T13:13:36;3.60;;;2.17;;
7497;SDS011;3790;48.806;9.140;2023-05-29T13:18:36;5.40;;;2.42;;
7497;SDS011;3790;48.806;9.140;2023-05-29T13:23:37;3.63;;;2.15;;
7497;SDS011;3790;48.806;9.140;2023-05-29T13:28:40;3.88;;;2.38;;
7497;SDS011;3790;48.806;9.140;2023-05-29T13:33:40;3.90;;;2.00;;
7497;SDS011;3790;48.806;9.140;2023-05-29T13:38:41;3.95;;;2.10;;
7497;SDS011;3790;48.806;9.140;2023-05-29T13:43:42;6.80;;;2.25;;
7497;SDS011;3790;48.806;9.140;2023-05-29T13:48:45;4.68;;;2.05;;
7497;SDS011;3790;48.806;9.140;2023-05-29T13:53:45;4.07;;;2.28;;
7497;SDS011;3790;48.806;9.140;2023-05-29T13:58:46;4.45;;;2.15;;
7497;SDS011;3790;48.806;9.140;2023-05-29T14:03:46;5.07;;;2.22;;
7497;SDS011;3790;48.806;9.140;2023-05-29T14:08:47;8.88;;;2.38;;
7497;SDS011;3790;48.806;9.140;2023-05-29T14:13:47;2.78;;;2.08;;
7497;SDS011;3790;48.806;9.140;2023-05-29T14:18:48;4.45;;;2.22;;
7497;SDS011;3790;48.806;9.140;2023-05-29T14:23:50;3.85;;;2.40;;
7497;SDS011;3790;48.806;9.140;2023-05-29T14:28:51;4.55;;;2.35;;
7497;SDS011;3790;48.806;9.140;2023-05-29T14:33:52;3.38;;;1.95;;
7497;SDS011;3790;48.806;9.140;2023-05-29T14:38:52;3.58;;;2.20;;
7497;SDS011;3790;48.806;9.140;2023-05-29T14:43:53;4.40;;;2.20;;
7497;SDS011;3790;48.806;9.140;2023-05-29T14:48:58;4.57;;;2.30;;
7497;SDS011;3790;48.806;9.140;2023-05-29T14:53:59;4.13;;;2.10;;
7497;SDS011;3790;48.806;9.140;2023-05-29T14:59:00;5.55;;;1.98;;
7497;SDS011;3790;48.806;9.140;2023-05-29T15:04:00;3.00;;;2.05;;
7497;SDS011;3790;48.806;9.140;2023-05-29T15:09:01;4.22;;;2.25;;
7497;SDS011;3790;48.806;9.140;2023-05-29T15:14:01;8.80;;;2.65;;
7497;SDS011;3790;48.806;9.140;2023-05-29T15:19:02;4.40;;;2.38;;
7497;SDS011;3790;48.806;9.140;2023-05-29T15:24:02;4.03;;;1.85;;
7497;SDS011;3790;48.806;9.140;2023-05-29T15:29:03;3.33;;;1.95;;
7497;SDS011;3790;48.806;9.140;2023-05-29T15:34:05;3.00;;;2.00;;
7497;SDS011;3790;48.806;9.140;2023-05-29T15:39:05;5.35;;;2.03;;
7497;SDS011;3790;48.806;9.140;2023-05-29T15:44:08;6.68;;;2.10;;
7497;SDS011;3790;48.806;9.140;2023-05-29T15:49:09;2.45;;;1.60;;
7497;SDS011;3790;48.806;9.140;2023-05-29T15:54:09;2.67;;;1.60;;
7497;SDS011;3790;48.806;9.140;2023-05-29T15:59:10;4.75;;;2.58;;
7497;SDS011;3790;48.806;9.140;2023-05-29T16:04:10;8.40;;;2.00;;
7497;SDS011;3790;48.806;9.140;2023-05-29T16:09:13;3.70;;;1.80;;
7497;SDS011;3790;48.806;9.140;2023-05-29T16:14:14;2.75;;;1.40;;
7497;SDS011;3790;48.806;9.140;2023-05-29T16:19:15;2.97;;;1.80;;
7497;SDS011;3790;48.806;9.140;2023-05-29T16:24:15;6.22;;;1.80;;
7497;SDS011;3790;48.806;9.140;2023-05-29T16:29:16;4.10;;;1.88;;
7497;SDS011;3790;48.806;9.140;2023-05-29T16:34:16;3.67;;;1.83;;
7497;SDS011;3790;48.806;9.140;2023-05-29T16:39:17;3.90;;;1.95;;
7497;SDS011;3790;48.806;9.140;2023-05-29T16:44:21;3.00;;;1.80;;
7497;SDS011;3790;48.806;9.140;2023-05-29T16:49:22;6.72;;;1.60;;
7497;SDS011;3790;48.806;9.140;2023-05-29T16:54:23;3.60;;;1.70;;
7497;SDS011;3790;48.806;9.140;2023-05-29T16:59:23;3.33;;;1.90;;
7497;SDS011;3790;48.806;9.140;2023-05-29T17:04:25;4.10;;;1.88;;
7497;SDS011;3790;48.806;9.140;2023-05-29T17:09:25;3.28;;;1.75;;
7497;SDS011;3790;48.806;9.140;2023-05-29T17:14:26;3.80;;;1.90;;
7497;SDS011;3790;48.806;9.140;2023-05-29T17:19:27;3.92;;;2.10;;
7497;SDS011;3790;48.806;9.140;2023-05-29T17:24:27;4.03;;;1.80;;
7497;SDS011;3790;48.806;9.140;2023-05-29T17:29:28;4.30;;;1.90;;
7497;SDS011;3790;48.806;9.140;2023-05-29T17:34:29;4.05;;;2.00;;
7497;SDS011;3790;48.806;9.140;2023-05-29T17:39:29;4.60;;;2.08;;
7497;SDS011;3790;48.806;9.140;2023-05-29T17:44:30;5.28;;;2.20;;
7497;SDS011;3790;48.806;9.140;2023-05-29T17:49:30;4.50;;;1.50;;
7497;SDS011;3790;48.806;9.140;2023-05-29T17:54:31;4.72;;;1.80;;
7497;SDS011;3790;48.806;9.140;2023-05-29T17:59:32;3.00;;;1.80;;
7497;SDS011;3790;48.806;9.140;2023-05-29T18:04:32;10.40;;;2.22;;
7497;SDS011;3790;48.806;9.140;2023-05-29T18:09:33;3.85;;;1.80;;
7497;SDS011;3790;48.806;9.140;2023-05-29T18:14:34;4.95;;;2.00;;
7497;SDS011;3790;48.806;9.140;2023-05-29T18:19:34;3.70;;;2.30;;
7497;SDS011;3790;48.806;9.140;2023-05-29T18:24:36;5.65;;;2.33;;
7497;SDS011;3790;48.806;9.140;2023-05-29T18:29:37;4.57;;;2.45;;
7497;SDS011;3790;48.806;9.140;2023-05-29T18:34:37;3.95;;;2.42;;
7497;SDS011;3790;48.806;9.140;2023-05-29T18:39:38;4.18;;;2.03;;
7497;SDS011;3790;48.806;9.140;2023-05-29T18:44:39;4.38;;;2.30;;
7497;SDS011;3790;48.806;9.140;2023-05-29T18:49:39;3.22;;;1.92;;
7497;SDS011;3790;48.806;9.140;2023-05-29T18:54:40;5.75;;;2.25;;
7497;SDS011;3790;48.806;9.140;2023-05-29T18:59:40;3.95;;;2.33;;
7497;SDS011;3790;48.806;9.140;2023-05-29T19:04:41;4.30;;;2.20;;
7497;SDS011;3790;48.806;9.140;2023-05-29T19:09:41;9.25;;;2.50;;
7497;SDS011;3790;48.806;9.140;2023-05-29T19:14:42;4.13;;;2.33;;
7497;SDS011;3790;48.806;9.140;2023-05-29T19:19:43;4.93;;;1.75;;
7497;SDS011;3790;48.806;9.140;2023-05-29T19:24:43;3.53;;;1.85;;
7497;SDS011;3790;48.806;9.140;2023-05-29T19:29:46;3.60;;;1.90;;
7497;SDS011;3790;48.806;9.140;2023-05-29T19:34:46;6.97;;;2.42;;
7497;SDS011;3790;48.806;9.140;2023-05-29T19:39:49;8.20;;;2.22;;
7497;SDS011;3790;48.806;9.140;2023-05-29T19:44:54;3.17;;;2.08;;
7497;SDS011;3790;48.806;9.140;2023-05-29T19:49:57;5.65;;;2.10;;
7497;SDS011;3790;48.806;9.140;2023-05-29T19:55:03;3.38;;;2.00;;
7497;SDS011;3790;48.806;9.140;2023-05-29T20:00:04;4.78;;;2.25;;
7497;SDS011;3790;48.806;9.140;2023-05-29T20:05:06;3.90;;;2.65;;
7497;SDS011;3790;48.806;9.140;2023-05-29T20:10:07;4.47;;;2.20;;
7497;SDS011;3790;48.806;9.140;2023-05-29T20:15:08;4.55;;;2.60;;
7497;SDS011;3790;48.806;9.140;2023-05-29T20:20:09;3.55;;;2.40;;
7497;SDS011;3790;48.806;9.140;2023-05-29T20:25:10;4.13;;;2.25;;
7497;SDS011;3790;48.806;9.140;2023-05-29T20:30:11;3.92;;;2.13;;
7497;SDS011;3790;48.806;9.140;2023-05-29T20:35:11;4.15;;;2.20;;
7497;SDS011;3790;48.806;9.140;2023-05-29T20:40:16;5.22;;;2.75;;
7497;SDS011;3790;48.806;9.140;2023-05-29T20:45:16;5.70;;;2.40;;
7497;SDS011;3790;48.806;9.140;2023-05-29T20:50:18;6.10;;;2.67;;
7497;SDS011;3790;48.806;9.140;2023-05-29T20:55:20;4.00;;;1.98;;
7497;SDS011;3790;48.806;9.140;2023-05-29T21:00:21;4.05;;;2.35;;
7497;SDS011;3790;48.806;9.140;2023-05-29T21:05:22;3.35;;;2.10;;
7497;SDS011;3790;48.806;9.140;2023-05-29T21:10:23;3.60;;;2.22;;
7497;SDS011;3790;48.806;9.140;2023-05-29T21:15:24;5.00;;;2.13;;
7497;SDS011;3790;48.806;9.140;2023-05-29T21:20:25;4.03;;;2.13;;
7497;SDS011;3790;48.806;9.140;2023-05-29T21:25:25;4.35;;;2.17;;
7497;SDS011;3790;48.806;9.140;2023-05-29T21:30:26;4.38;;;2.33;;
7497;SDS011;3790;48.806;9.140;2023-05-29T21:35:27;4.93;;;2.40;;
7497;SDS011;3790;48.806;9.140;2023-05-29T21:40:27;5.47;;;2.42;;
7497;SDS011;3790;48.806;9.140;2023-05-29T21:45:30;3.00;;;2.00;;
7497;SDS011;3790;48.806;9.140;2023-05-29T21:50:31;4.78;;;2.30;;
7497;SDS011;3790;48.806;9.140;2023-05-29T21:55:31;4.13;;;2.13;;
7497;SDS011;3790;48.806;9.140;2023-05-29T22:00:32;4.22;;;2.13;;
7497;SDS011;3790;48.806;9.140;2023-05-29T22:05:33;4.55;;;2.10;;
7497;SDS011;3790;48.806;9.140;2023-05-29T22:10:34;4.60;;;2.47;;
7497;SDS011;3790;48.806;9.140;2023-05-29T22:15:35;3.47;;;1.98;;
7497;SDS011;3790;48.806;9.140;2023-05-29T22:20:35;3.17;;;1.98;;
7497;SDS011;3790;48.806;9.140;2023-05-29T22:25:36;5.60;;;2.20;;
7497;SDS011;3790;48.806;9.140;2023-05-29T22:30:36;2.58;;;1.73;;
7497;SDS011;3790;48.806;9.140;2023-05-29T22:35:37;4.53;;;1.92;;
7497;SDS011;3790;48.806;9.140;2023-05-29T22:40:37;4.05;;;2.10;;
7497;SDS011;3790;48.806;9.140;2023-05-29T22:45:38;3.92;;;1.95;;
7497;SDS011;3790;48.806;9.140;2023-05-29T22:50:39;3.20;;;1.77;;
7497;SDS011;3790;48.806;9.140;2023-05-29T22:55:39;4.35;;;2.10;;
7497;SDS011;3790;48.806;9.140;2023-05-29T23:00:40;2.85;;;1.88;;
7497;SDS011;3790;48.806;9.140;2023-05-29T23:05:41;3.10;;;2.10;;
7497;SDS011;3790;48.806;9.140;2023-05-29T23:10:42;3.70;;;2.13;;
7497;SDS011;3790;48.806;9.140;2023-05-29T23:15:43;5.50;;;1.90;;
7497;SDS011;3790;48.806;9.140;2023-05-29T23:20:43;2.72;;;1.50;;
7497;SDS011;3790;48.806;9.140;2023-05-29T23:25:44;3.92;;;2.00;;
7497;SDS011;3790;48.806;9.140;2023-05-29T23:30:46;3.25;;;1.90;;
7497;SDS011;3790;48.806;9.140;2023-05-29T23:35:46;3.83;;;2.10;;
7497;SDS011;3790;48.806;9.140;2023-05-29T23:40:47;4.30;;;1.98;;
7497;SDS011;3790;48.806;9.140;2023-05-29T23:45:48;3.50;;;2.03;;
7497;SDS011;3790;48.806;9.140;2023-05-29T23:50:48;4.90;;;2.25;;
7497;SDS011;3790;48.806;9.140;2023-05-29T23:55:49;3.20;;;1.75;;
